This is the latest recevied weather packets stored in our database for station/object NUUKSIO. If no packets are shown the sender has not sent any weather packets the latest 10 day(s).
| Time | Temp. | Humidity | Pressure | Rain* | Wind** | Luminosity | Snow |
|---|---|---|---|---|---|---|---|
| 1777699622 | 8.33° C | 81% | 1011.5 hPa | 0 mm | - | - | - |
| 1777698421 | 7.22° C | 85% | 1011.6 hPa | 0 mm | - | - | - |
| 1777697221 | 6.11° C | 90% | 1011.7 hPa | 0 mm | - | - | - |
| 1777696021 | 5° C | 94% | 1011.9 hPa | 0 mm | - | - | - |
| 1777694821 | 3.33° C | 97% | 1012.1 hPa | 0 mm | - | - | - |
| 1777693621 | 2.78° C | 97% | 1012.2 hPa | 0 mm | - | - | - |
| 1777692421 | 2.78° C | 96% | 1012.2 hPa | 0 mm | - | - | - |
| 1777691221 | 2.78° C | 98% | 1012.1 hPa | 0 mm | - | - | - |
| 1777690021 | 2.78° C | 97% | 1012.5 hPa | 0 mm | - | - | - |
| 1777688821 | 3.33° C | 98% | 1012.7 hPa | 0 mm | - | - | - |
| 1777687621 | 2.78° C | 97% | 1013 hPa | 0 mm | - | - | - |
| 1777686421 | 3.33° C | 94% | 1013.1 hPa | 0 mm | - | - | - |
| 1777685221 | 3.33° C | 93% | 1013.2 hPa | 0 mm | - | - | - |
| 1777684021 | 3.89° C | 91% | 1013.4 hPa | 0 mm | - | - | - |
| 1777682821 | 3.89° C | 95% | 1013.5 hPa | 0 mm | - | - | - |
| 1777681621 | 4.44° C | 91% | 1013.8 hPa | 0 mm | - | - | - |
| 1777680421 | 4.44° C | 90% | 1013.9 hPa | 0 mm | - | - | - |
| 1777679220 | 5° C | 91% | 1014.1 hPa | 0 mm | - | - | - |
| 1777678020 | 5° C | 88% | 1014.4 hPa | 0 mm | - | - | - |
| 1777676820 | 5.56° C | 85% | 1014.4 hPa | 0 mm | - | - | - |
| 1777675620 | 5.56° C | 84% | 1014.4 hPa | 0 mm | - | - | - |
| 1777674421 | 5.56° C | 83% | 1014.5 hPa | 0 mm | - | - | - |
| 1777673220 | 6.67° C | 81% | 1014.6 hPa | 0 mm | - | - | - |
| 1777672020 | 6.67° C | 79% | 1014.9 hPa | 0 mm | - | - | - |
| 1777670820 | 7.22° C | 77% | 1015.1 hPa | 0 mm | - | - | - |
* Rain latest hour (hover to see other rain measurements)
** Current wind speed in m/s (hover to see current wind gust speed)